createdAt,value
2022-10-26T00:00:00.274Z,11.85
2022-10-26T00:01:00.254Z,11.83
2022-10-26T00:02:00.417Z,11.83
2022-10-26T00:03:00.210Z,11.85
2022-10-26T00:04:00.220Z,11.78
2022-10-26T00:05:00.265Z,11.83
2022-10-26T00:06:00.177Z,11.82
2022-10-26T00:07:00.157Z,11.77
2022-10-26T00:08:00.156Z,11.78
2022-10-26T00:09:00.144Z,11.75
2022-10-26T00:10:00.131Z,11.77
2022-10-26T00:11:00.138Z,11.75
2022-10-26T00:12:00.148Z,11.72
2022-10-26T00:13:00.085Z,11.68
2022-10-26T00:14:00.094Z,11.70
2022-10-26T00:15:00.063Z,11.72
2022-10-26T00:17:00.033Z,11.75
2022-10-26T00:18:00.024Z,11.74
2022-10-26T00:19:00.005Z,11.75
2022-10-26T00:20:00.009Z,11.75
2022-10-26T00:21:00.008Z,11.77
2022-10-26T00:22:00.287Z,11.77
2022-10-26T00:22:59.945Z,11.75
2022-10-26T00:23:59.948Z,11.75
2022-10-26T00:24:59.928Z,11.75
2022-10-26T00:25:59.926Z,11.74
2022-10-26T00:26:59.912Z,11.72
2022-10-26T00:27:59.885Z,11.68
2022-10-26T00:28:59.931Z,11.64
2022-10-26T00:29:59.896Z,11.61
2022-10-26T00:30:59.841Z,11.53
2022-10-26T00:31:59.840Z,11.50
2022-10-26T00:32:59.813Z,11.49
2022-10-26T00:33:59.806Z,11.50
2022-10-26T00:35:10.326Z,11.54
2022-10-26T00:36:00.793Z,11.50
2022-10-26T00:36:59.825Z,11.50
2022-10-26T00:37:59.769Z,11.52
2022-10-26T00:38:59.734Z,11.53
2022-10-26T00:39:59.762Z,11.52
2022-10-26T00:40:59.881Z,11.50
2022-10-26T00:41:59.699Z,11.52
2022-10-26T00:42:59.692Z,11.52
2022-10-26T00:43:59.689Z,11.49
2022-10-26T00:44:59.684Z,11.43
2022-10-26T00:45:59.671Z,11.39
2022-10-26T00:46:59.658Z,11.39
2022-10-26T00:47:59.637Z,11.35
2022-10-26T00:48:59.654Z,11.38
2022-10-26T00:49:59.648Z,11.38
2022-10-26T00:50:59.575Z,11.34
2022-10-26T00:51:59.571Z,11.32
2022-10-26T00:52:59.581Z,11.29
2022-10-26T00:53:59.540Z,11.28
2022-10-26T00:54:59.580Z,11.25
2022-10-26T00:55:59.519Z,11.19
2022-10-26T00:56:59.636Z,11.14
2022-10-26T00:57:59.508Z,11.10
2022-10-26T00:58:59.489Z,11.07
2022-10-26T00:59:59.498Z,11.06
2022-10-26T01:00:59.450Z,11.02
2022-10-26T01:01:59.512Z,11.02
2022-10-26T01:02:59.429Z,11.01
2022-10-26T01:03:59.503Z,10.99
2022-10-26T01:04:59.406Z,11.01
2022-10-26T01:05:59.385Z,11.01
2022-10-26T01:06:59.421Z,11.01
2022-10-26T01:07:59.360Z,10.98
2022-10-26T01:08:59.344Z,10.94
2022-10-26T01:09:59.341Z,10.89
2022-10-26T01:10:59.352Z,10.86
2022-10-26T01:11:59.311Z,10.83
2022-10-26T01:12:59.288Z,10.80
2022-10-26T01:13:59.273Z,10.74
2022-10-26T01:14:59.380Z,10.68
2022-10-26T01:15:59.267Z,10.63
2022-10-26T01:16:59.265Z,10.63
2022-10-26T01:17:59.223Z,10.62
2022-10-26T01:18:59.212Z,10.63
2022-10-26T01:19:59.235Z,10.58
2022-10-26T01:20:59.196Z,10.56
2022-10-26T01:21:59.166Z,10.53
2022-10-26T01:22:59.159Z,10.53
2022-10-26T01:23:59.260Z,10.51
2022-10-26T01:24:59.161Z,10.44
2022-10-26T01:25:59.115Z,10.44
2022-10-26T01:26:59.115Z,10.43
2022-10-26T01:27:59.117Z,10.40
2022-10-26T01:28:59.115Z,10.37
2022-10-26T01:29:59.067Z,10.42
2022-10-26T01:30:59.101Z,10.40
2022-10-26T01:31:59.041Z,10.40
2022-10-26T01:32:59.055Z,10.43
2022-10-26T01:33:59.076Z,10.37
2022-10-26T01:34:59.015Z,10.39
2022-10-26T01:35:58.985Z,10.37
2022-10-26T01:36:58.994Z,10.37
2022-10-26T01:37:58.969Z,10.36
2022-10-26T01:38:59.012Z,10.34
2022-10-26T01:39:58.995Z,10.33
2022-10-26T01:40:58.917Z,10.32
2022-10-26T01:41:58.963Z,10.36
2022-10-26T01:42:58.895Z,10.43
2022-10-26T01:43:58.877Z,10.46
2022-10-26T01:44:59.007Z,10.55
2022-10-26T01:45:58.877Z,10.59
2022-10-26T01:46:58.850Z,10.60
2022-10-26T01:47:58.830Z,10.59
2022-10-26T01:48:58.837Z,10.55
2022-10-26T01:49:58.941Z,10.52
2022-10-26T01:50:58.785Z,10.44
2022-10-26T01:51:58.785Z,10.36
2022-10-26T01:52:58.766Z,10.30
2022-10-26T01:53:58.881Z,10.24
2022-10-26T01:54:58.807Z,10.24
2022-10-26T01:55:58.781Z,10.21
2022-10-26T01:56:58.763Z,10.21
2022-10-26T01:57:58.722Z,10.18
2022-10-26T01:58:58.683Z,10.12
2022-10-26T01:59:58.687Z,10.10
2022-10-26T02:00:58.661Z,10.12
2022-10-26T02:01:58.686Z,10.10
2022-10-26T02:02:58.627Z,10.12
2022-10-26T02:03:58.713Z,10.10
2022-10-26T02:04:58.616Z,10.09
2022-10-26T02:05:58.664Z,10.14
2022-10-26T02:06:58.581Z,10.14
2022-10-26T02:07:58.561Z,10.09
2022-10-26T02:08:58.561Z,10.12
2022-10-26T02:09:58.573Z,10.12
2022-10-26T02:10:58.538Z,10.15
2022-10-26T02:11:58.499Z,10.09
2022-10-26T02:12:58.500Z,10.07
2022-10-26T02:13:58.522Z,10.06
2022-10-26T02:14:58.506Z,10.10
2022-10-26T02:15:58.495Z,10.15
2022-10-26T02:16:58.503Z,10.18
2022-10-26T02:17:58.444Z,10.21
2022-10-26T02:18:58.430Z,10.24
2022-10-26T02:19:58.416Z,10.25
2022-10-26T02:20:58.648Z,10.26
2022-10-26T02:21:58.394Z,10.26
2022-10-26T02:22:58.369Z,10.30
2022-10-26T02:23:58.423Z,10.30
2022-10-26T02:24:58.412Z,10.32
2022-10-26T02:25:58.324Z,10.37
2022-10-26T02:26:58.326Z,10.43
2022-10-26T02:27:58.289Z,10.40
2022-10-26T02:28:58.406Z,10.42
2022-10-26T02:29:58.277Z,10.46
2022-10-26T02:30:58.260Z,10.47
2022-10-26T02:31:58.312Z,10.46
2022-10-26T02:32:58.227Z,10.44
2022-10-26T02:33:58.207Z,10.43
2022-10-26T02:34:58.215Z,10.43
2022-10-26T02:35:58.229Z,10.43
2022-10-26T02:36:58.190Z,10.42
2022-10-26T02:37:58.161Z,10.37
2022-10-26T02:38:58.187Z,10.34
2022-10-26T02:39:58.141Z,10.30
2022-10-26T02:40:58.129Z,10.25
2022-10-26T02:41:58.109Z,10.25
2022-10-26T02:42:58.169Z,10.25
2022-10-26T02:43:58.099Z,10.22
2022-10-26T02:44:58.089Z,10.24
2022-10-26T02:45:58.054Z,10.25
2022-10-26T02:46:58.040Z,10.24
2022-10-26T02:47:58.067Z,10.18
2022-10-26T02:48:58.019Z,10.09
2022-10-26T02:49:58.011Z,10.03
2022-10-26T02:50:57.986Z,10.00
2022-10-26T02:51:58.099Z,10.00
2022-10-26T02:52:57.996Z,9.96
2022-10-26T02:53:57.935Z,9.89
2022-10-26T02:54:57.940Z,9.91
2022-10-26T02:55:57.912Z,9.94
2022-10-26T02:56:57.945Z,10.00
2022-10-26T02:57:57.890Z,9.99
2022-10-26T02:58:57.873Z,10.01
2022-10-26T02:59:57.892Z,10.01
2022-10-26T03:00:57.892Z,9.96
2022-10-26T03:01:57.834Z,9.96
2022-10-26T03:02:57.829Z,9.89
2022-10-26T03:03:57.871Z,9.86
2022-10-26T03:04:57.846Z,9.82
2022-10-26T03:05:57.821Z,9.79
2022-10-26T03:06:57.783Z,9.76
2022-10-26T03:07:57.744Z,9.75
2022-10-26T03:08:57.741Z,9.78
2022-10-26T03:09:57.741Z,9.85
2022-10-26T03:10:57.890Z,9.86
2022-10-26T03:11:57.691Z,9.83
2022-10-26T03:12:57.753Z,9.76
2022-10-26T03:13:57.668Z,9.70
2022-10-26T03:14:57.666Z,9.68
2022-10-26T03:15:57.678Z,9.67
2022-10-26T03:16:57.634Z,9.67
2022-10-26T03:17:57.615Z,9.64
2022-10-26T03:18:57.680Z,9.61
2022-10-26T03:19:57.616Z,9.56
2022-10-26T03:20:57.607Z,9.53
2022-10-26T03:21:57.582Z,9.52
2022-10-26T03:22:57.591Z,9.48
2022-10-26T03:23:57.543Z,9.43
2022-10-26T03:24:57.603Z,9.42
2022-10-26T03:25:57.544Z,9.43
2022-10-26T03:27:01.128Z,9.42
2022-10-26T03:27:57.504Z,9.38
2022-10-26T03:28:57.475Z,9.38
2022-10-26T03:29:57.510Z,9.40
2022-10-26T03:30:57.449Z,9.40
2022-10-26T03:31:57.436Z,9.40
2022-10-26T03:32:57.420Z,9.40
2022-10-26T03:33:57.428Z,9.46
2022-10-26T03:34:57.478Z,9.45
2022-10-26T03:35:57.382Z,9.43
2022-10-26T03:36:57.388Z,9.43
2022-10-26T03:37:57.398Z,9.46
2022-10-26T03:38:57.343Z,9.42
2022-10-26T03:39:57.349Z,9.39
2022-10-26T03:40:57.326Z,9.35
2022-10-26T03:41:57.335Z,9.35
2022-10-26T03:42:57.295Z,9.35
2022-10-26T03:43:57.273Z,9.35
2022-10-26T03:44:57.290Z,9.38
2022-10-26T03:45:57.274Z,9.35
2022-10-26T03:46:57.242Z,9.32
2022-10-26T03:47:57.219Z,9.38
2022-10-26T03:48:57.233Z,9.42
2022-10-26T03:49:57.287Z,9.45
2022-10-26T03:50:57.350Z,9.45
2022-10-26T03:51:57.173Z,9.46
2022-10-26T03:52:57.182Z,9.46
2022-10-26T03:53:57.159Z,9.45
2022-10-26T03:54:57.158Z,9.40
2022-10-26T03:55:57.153Z,9.38
2022-10-26T03:56:57.120Z,9.38
2022-10-26T03:57:57.148Z,9.34
2022-10-26T03:58:57.087Z,9.32
2022-10-26T03:59:57.104Z,9.31
2022-10-26T04:00:57.060Z,9.31
2022-10-26T04:01:57.998Z,9.30
2022-10-26T04:02:57.038Z,9.31
2022-10-26T04:03:57.115Z,9.32
2022-10-26T04:04:57.004Z,9.30
2022-10-26T04:05:56.998Z,9.28
2022-10-26T04:06:56.976Z,9.27
2022-10-26T04:07:57.024Z,9.23
2022-10-26T04:08:56.952Z,9.27
2022-10-26T04:09:56.947Z,9.25
2022-10-26T04:10:59.856Z,9.24
2022-10-26T04:11:57.939Z,9.23
2022-10-26T04:12:56.898Z,9.23
2022-10-26T04:13:56.884Z,9.20
2022-10-26T04:14:56.912Z,9.20
2022-10-26T04:15:56.938Z,9.16
2022-10-26T04:16:56.908Z,9.16
2022-10-26T04:17:56.836Z,9.15
2022-10-26T04:18:56.831Z,9.15
2022-10-26T04:19:56.859Z,9.18
2022-10-26T04:20:56.794Z,9.23
2022-10-26T04:21:56.785Z,9.24
2022-10-26T04:22:56.798Z,9.25
2022-10-26T04:23:56.785Z,9.28
2022-10-26T04:24:56.750Z,9.28
2022-10-26T04:25:56.737Z,9.31
2022-10-26T04:26:56.757Z,9.30
2022-10-26T04:27:56.698Z,9.32
2022-10-26T04:28:56.728Z,9.35
2022-10-26T04:29:56.683Z,9.39
2022-10-26T04:30:56.687Z,9.35
2022-10-26T04:31:56.696Z,9.34
2022-10-26T04:32:56.646Z,9.34
2022-10-26T04:33:57.301Z,9.32
2022-10-26T04:34:56.625Z,9.35
2022-10-26T04:35:56.660Z,9.39
2022-10-26T04:36:56.603Z,9.43
2022-10-26T04:37:56.628Z,9.45
2022-10-26T04:38:56.576Z,9.48
2022-10-26T04:39:56.607Z,9.49
2022-10-26T04:40:56.589Z,9.52
2022-10-26T04:41:56.523Z,9.53
2022-10-26T04:42:56.516Z,9.50
2022-10-26T04:43:56.605Z,9.56
2022-10-26T04:44:56.500Z,9.58
2022-10-26T04:45:56.485Z,9.58
2022-10-26T04:46:56.467Z,9.61
2022-10-26T04:47:56.469Z,9.53
2022-10-26T04:48:56.547Z,9.56
2022-10-26T04:49:56.437Z,9.60
2022-10-26T04:50:56.415Z,9.61
2022-10-26T04:51:56.390Z,9.63
2022-10-26T04:52:56.431Z,9.58
2022-10-26T04:53:56.368Z,9.58
2022-10-26T04:54:56.366Z,9.58
2022-10-26T04:55:56.378Z,9.57
2022-10-26T04:56:56.335Z,9.53
2022-10-26T04:57:58.630Z,9.52
2022-10-26T04:58:56.354Z,9.56
2022-10-26T04:59:56.290Z,9.52
2022-10-26T05:00:56.349Z,9.48
2022-10-26T05:01:56.382Z,9.46
2022-10-26T05:02:56.327Z,9.48
2022-10-26T05:03:56.248Z,9.48
2022-10-26T05:04:56.340Z,9.49
2022-10-26T05:05:56.225Z,9.53
2022-10-26T05:06:56.241Z,9.56
2022-10-26T05:07:56.179Z,9.57
2022-10-26T05:08:56.168Z,9.53
2022-10-26T05:09:56.182Z,9.52
2022-10-26T05:10:56.180Z,9.50
2022-10-26T05:11:56.165Z,9.48
2022-10-26T05:12:56.107Z,9.48
2022-10-26T05:13:56.110Z,9.45
2022-10-26T05:14:56.099Z,9.35
2022-10-26T05:15:56.204Z,9.31
2022-10-26T05:16:56.063Z,9.32
2022-10-26T05:17:56.055Z,9.32
2022-10-26T05:18:56.027Z,9.34
2022-10-26T05:19:56.085Z,9.34
2022-10-26T05:20:56.020Z,9.38
2022-10-26T05:21:56.027Z,9.35
2022-10-26T05:22:55.982Z,9.34
2022-10-26T05:23:56.015Z,9.34
2022-10-26T05:24:55.960Z,9.34
2022-10-26T05:25:55.955Z,9.32
2022-10-26T05:26:55.938Z,9.35
2022-10-26T05:27:55.943Z,9.35
2022-10-26T05:28:55.908Z,9.40
2022-10-26T05:29:55.973Z,9.43
2022-10-26T05:30:55.884Z,9.48
2022-10-26T05:31:55.860Z,9.50
2022-10-26T05:32:55.863Z,9.49
2022-10-26T05:33:55.980Z,9.48
2022-10-26T05:34:55.827Z,9.46
2022-10-26T05:35:55.883Z,9.49
2022-10-26T05:36:55.793Z,9.45
2022-10-26T05:37:55.795Z,9.40
2022-10-26T05:38:55.786Z,9.39
2022-10-26T05:39:55.869Z,9.35
2022-10-26T05:40:55.872Z,9.34
2022-10-26T05:41:55.746Z,9.31
2022-10-26T05:42:55.758Z,9.31
2022-10-26T05:43:55.722Z,9.28
2022-10-26T05:44:55.689Z,9.28
2022-10-26T05:45:55.800Z,9.30
2022-10-26T05:46:55.808Z,9.31
2022-10-26T05:47:58.597Z,9.32
2022-10-26T05:48:56.644Z,9.30
2022-10-26T05:49:55.621Z,9.30
2022-10-26T05:50:55.648Z,9.32
2022-10-26T05:51:55.629Z,9.34
2022-10-26T05:52:55.583Z,9.38
2022-10-26T05:53:55.576Z,9.38
2022-10-26T05:54:55.788Z,9.38
2022-10-26T05:55:55.559Z,9.32
2022-10-26T05:56:55.573Z,9.31
2022-10-26T05:57:55.535Z,9.30
2022-10-26T05:58:55.501Z,9.31
2022-10-26T05:59:55.495Z,9.28
2022-10-26T06:00:55.584Z,9.27
2022-10-26T06:01:55.577Z,9.27
2022-10-26T06:02:55.447Z,9.28
2022-10-26T06:03:55.450Z,9.25
2022-10-26T06:04:55.432Z,9.24
2022-10-26T06:05:55.429Z,9.25
2022-10-26T06:06:55.401Z,9.25
2022-10-26T06:07:55.381Z,9.28
2022-10-26T06:08:55.436Z,9.28
2022-10-26T06:09:55.365Z,9.31
2022-10-26T06:10:55.361Z,9.31
2022-10-26T06:11:55.348Z,9.34
2022-10-26T06:12:55.394Z,9.35
2022-10-26T06:13:55.314Z,9.35
2022-10-26T06:14:55.297Z,9.35
2022-10-26T06:15:55.292Z,9.34
2022-10-26T06:16:55.266Z,9.30
2022-10-26T06:17:55.290Z,9.35
2022-10-26T06:18:58.255Z,9.35
2022-10-26T06:19:56.236Z,9.32
2022-10-26T06:20:55.231Z,9.34
2022-10-26T06:21:55.271Z,9.32
2022-10-26T06:22:55.189Z,9.32
2022-10-26T06:23:55.218Z,9.32
2022-10-26T06:24:55.171Z,9.35
2022-10-26T06:25:55.163Z,9.38
2022-10-26T06:26:55.151Z,9.38
2022-10-26T06:27:55.132Z,9.35
2022-10-26T06:28:55.103Z,9.35
2022-10-26T06:29:55.264Z,9.39
2022-10-26T06:30:55.079Z,9.39
2022-10-26T06:31:55.080Z,9.39
2022-10-26T06:33:01.406Z,9.40
2022-10-26T06:33:56.054Z,9.42
2022-10-26T06:34:55.023Z,9.43
2022-10-26T06:35:55.325Z,9.46
2022-10-26T06:37:55.031Z,9.45
2022-10-26T06:38:54.970Z,9.50
2022-10-26T06:39:55.009Z,9.49
2022-10-26T06:40:54.974Z,9.53
2022-10-26T06:41:54.970Z,9.57
2022-10-26T06:42:54.962Z,9.56
2022-10-26T06:43:54.913Z,9.56
2022-10-26T06:44:54.888Z,9.57
2022-10-26T06:45:54.889Z,9.57
2022-10-26T06:46:54.910Z,9.58
2022-10-26T06:47:54.861Z,9.61
2022-10-26T06:48:54.839Z,9.58
2022-10-26T06:49:54.826Z,9.57
2022-10-26T06:50:54.829Z,9.61
2022-10-26T06:51:54.840Z,9.66
2022-10-26T06:52:54.787Z,9.63
2022-10-26T06:53:54.789Z,9.58
2022-10-26T06:54:54.781Z,9.61
2022-10-26T06:55:54.838Z,9.60
2022-10-26T06:56:54.767Z,9.64
2022-10-26T06:57:54.728Z,9.63
2022-10-26T06:58:54.749Z,9.63
2022-10-26T06:59:54.691Z,9.64
2022-10-26T07:00:54.754Z,9.70
2022-10-26T07:01:54.746Z,9.78
2022-10-26T07:02:54.944Z,9.83
2022-10-26T07:03:54.643Z,9.82
2022-10-26T07:04:54.654Z,9.81
2022-10-26T07:05:54.633Z,9.82
2022-10-26T07:06:54.612Z,9.83
2022-10-26T07:07:54.612Z,9.85
2022-10-26T07:08:54.576Z,9.88
2022-10-26T07:09:54.564Z,9.86
2022-10-26T07:10:54.540Z,9.89
2022-10-26T07:11:54.565Z,9.89
2022-10-26T07:12:54.533Z,9.91
2022-10-26T07:13:54.538Z,9.86
2022-10-26T07:14:54.523Z,9.86
2022-10-26T07:15:54.479Z,9.88
2022-10-26T07:16:54.502Z,9.91
2022-10-26T07:17:54.459Z,9.93
2022-10-26T07:18:54.433Z,9.93
2022-10-26T07:19:54.440Z,9.93
2022-10-26T07:20:54.406Z,9.97
2022-10-26T07:21:54.405Z,10.00
2022-10-26T07:22:54.465Z,10.04
2022-10-26T07:23:54.376Z,10.06
2022-10-26T07:24:56.948Z,10.09
2022-10-26T07:25:54.353Z,10.09
2022-10-26T07:26:54.324Z,10.10
2022-10-26T07:27:54.372Z,10.10
2022-10-26T07:28:54.307Z,10.14
2022-10-26T07:29:54.296Z,10.19
2022-10-26T07:30:56.189Z,10.24
2022-10-26T07:32:54.255Z,10.22
2022-10-26T07:33:54.237Z,10.28
2022-10-26T07:34:54.222Z,10.33
2022-10-26T07:35:54.207Z,10.37
2022-10-26T07:36:54.225Z,10.42
2022-10-26T07:37:54.223Z,10.44
2022-10-26T07:38:54.181Z,10.46
2022-10-26T07:39:54.163Z,10.51
2022-10-26T07:40:54.151Z,10.53
2022-10-26T07:41:54.130Z,10.56
2022-10-26T07:42:54.512Z,10.62
2022-10-26T07:43:54.120Z,10.63
2022-10-26T07:44:54.091Z,10.66
2022-10-26T07:45:54.085Z,10.71
2022-10-26T07:46:54.059Z,10.76
2022-10-26T07:47:54.125Z,10.76
2022-10-26T07:48:54.048Z,10.80
2022-10-26T07:49:54.035Z,10.80
2022-10-26T07:50:54.034Z,10.86
2022-10-26T07:51:54.011Z,10.89
2022-10-26T07:52:54.001Z,10.92
2022-10-26T07:53:53.984Z,10.95
2022-10-26T07:54:53.969Z,10.96
2022-10-26T07:55:53.984Z,11.01
2022-10-26T07:56:53.996Z,11.09
2022-10-26T07:57:54.686Z,11.09
2022-10-26T07:58:53.908Z,11.11
2022-10-26T07:59:53.901Z,11.13
2022-10-26T08:00:53.981Z,11.19
2022-10-26T08:01:53.932Z,11.20
2022-10-26T08:02:53.871Z,11.24
2022-10-26T08:03:53.854Z,11.28
2022-10-26T08:04:53.835Z,11.32
2022-10-26T08:05:53.819Z,11.35
2022-10-26T08:06:53.865Z,11.43
2022-10-26T08:07:53.808Z,11.47
2022-10-26T08:08:53.777Z,11.53
2022-10-26T08:09:53.765Z,11.56
2022-10-26T08:10:53.772Z,11.62
2022-10-26T08:11:53.750Z,11.71
2022-10-26T08:12:53.733Z,11.72
2022-10-26T08:13:53.734Z,11.74
2022-10-26T08:14:53.689Z,11.75
2022-10-26T08:15:53.680Z,11.72
2022-10-26T08:16:53.670Z,11.72
2022-10-26T08:17:53.657Z,11.74
2022-10-26T08:18:53.689Z,11.78
2022-10-26T08:19:53.642Z,11.83
2022-10-26T08:20:56.384Z,11.83
2022-10-26T08:21:54.614Z,11.87
2022-10-26T08:22:53.591Z,11.94
2022-10-26T08:23:53.672Z,11.94
2022-10-26T08:24:53.557Z,12.01
2022-10-26T08:25:53.559Z,11.96
2022-10-26T08:26:53.544Z,11.96
2022-10-26T08:27:53.533Z,11.97
2022-10-26T08:28:53.552Z,12.02
2022-10-26T08:29:53.533Z,12.04
2022-10-26T08:30:53.484Z,12.05
2022-10-26T08:31:53.477Z,12.05
2022-10-26T08:32:53.484Z,12.09
2022-10-26T08:33:53.460Z,12.12
2022-10-26T08:34:53.429Z,12.19
2022-10-26T08:35:53.422Z,12.20
2022-10-26T08:36:53.413Z,12.21
2022-10-26T08:37:53.463Z,12.26
2022-10-26T08:38:53.439Z,12.31
2022-10-26T08:39:55.266Z,12.34
2022-10-26T08:40:53.346Z,12.37
2022-10-26T08:41:53.353Z,12.38
2022-10-26T08:42:53.421Z,12.44
2022-10-26T08:43:53.324Z,12.45
2022-10-26T08:44:53.299Z,12.52
2022-10-26T08:45:53.288Z,12.56
2022-10-26T08:46:53.274Z,12.57
2022-10-26T08:47:53.318Z,12.60
2022-10-26T08:48:53.343Z,12.63
2022-10-26T08:49:53.237Z,12.69
2022-10-26T08:50:53.216Z,12.77
2022-10-26T08:51:53.212Z,12.79
2022-10-26T08:52:53.228Z,12.84
2022-10-26T08:53:53.215Z,12.88
2022-10-26T08:54:53.179Z,12.96
2022-10-26T08:55:53.161Z,12.99
2022-10-26T08:56:53.141Z,13.03
2022-10-26T08:57:53.241Z,13.07
2022-10-26T08:58:53.117Z,13.11
2022-10-26T08:59:53.185Z,13.14
2022-10-26T09:00:53.122Z,13.15
2022-10-26T09:01:53.109Z,13.21
2022-10-26T09:02:53.075Z,13.29
2022-10-26T09:03:53.100Z,13.36
2022-10-26T09:04:53.031Z,13.38
2022-10-26T09:05:53.043Z,13.44
2022-10-26T09:06:53.263Z,13.46
2022-10-26T09:07:53.114Z,13.47
2022-10-26T09:08:53.075Z,13.46
2022-10-26T09:09:53.240Z,13.47
2022-10-26T09:10:52.960Z,13.55
2022-10-26T09:11:52.960Z,13.63
2022-10-26T09:12:53.093Z,13.63
2022-10-26T09:13:56.299Z,13.62
2022-10-26T09:14:53.900Z,13.67
2022-10-26T09:15:52.892Z,13.71
2022-10-26T09:16:52.886Z,13.70
2022-10-26T09:17:52.899Z,13.80
2022-10-26T09:18:53.498Z,13.92
2022-10-26T09:19:52.836Z,13.99
2022-10-26T09:20:52.820Z,14.02
2022-10-26T09:21:52.823Z,14.04
2022-10-26T09:22:52.891Z,14.10
2022-10-26T09:23:52.796Z,14.16
2022-10-26T09:24:52.778Z,14.29
2022-10-26T09:25:52.753Z,14.38
2022-10-26T09:26:52.808Z,14.42
2022-10-26T09:27:52.962Z,14.43
2022-10-26T09:28:52.733Z,14.39
2022-10-26T09:29:52.702Z,14.42
2022-10-26T09:30:52.700Z,14.49
2022-10-26T09:31:52.676Z,14.49
2022-10-26T09:32:52.744Z,14.50
2022-10-26T09:33:52.665Z,14.52
2022-10-26T09:34:52.663Z,14.61
2022-10-26T09:35:52.672Z,14.71
2022-10-26T09:36:52.623Z,14.84
2022-10-26T09:37:52.735Z,14.93
2022-10-26T09:38:52.595Z,14.95
2022-10-26T09:39:52.658Z,15.05
2022-10-26T09:40:52.564Z,15.09
2022-10-26T09:41:52.556Z,15.15
2022-10-26T09:42:52.545Z,15.23
2022-10-26T09:43:52.551Z,14.99
2022-10-26T09:44:52.516Z,15.05
2022-10-26T09:45:52.532Z,15.05
2022-10-26T09:46:52.520Z,15.11
2022-10-26T09:47:52.957Z,15.03
2022-10-26T09:48:52.495Z,15.11
2022-10-26T09:49:52.453Z,15.21
2022-10-26T09:50:52.477Z,15.39
2022-10-26T09:51:52.416Z,15.56
2022-10-26T09:52:52.644Z,15.66
2022-10-26T09:53:52.398Z,15.75
2022-10-26T09:54:52.409Z,15.76
2022-10-26T09:55:52.365Z,15.67
2022-10-26T09:56:52.350Z,15.74
2022-10-26T09:57:52.336Z,15.85
2022-10-26T09:58:52.473Z,15.89
2022-10-26T09:59:52.309Z,15.97
2022-10-26T10:00:52.310Z,16.07
2022-10-26T10:01:52.355Z,16.18
2022-10-26T10:02:52.541Z,16.27
2022-10-26T10:03:52.621Z,16.20
2022-10-26T10:04:52.257Z,16.23
2022-10-26T10:05:53.054Z,16.30
2022-10-26T10:06:52.301Z,16.40
2022-10-26T10:07:52.206Z,16.33
2022-10-26T10:08:52.253Z,16.15
2022-10-26T10:09:52.187Z,16.14
2022-10-26T10:10:52.155Z,16.26
2022-10-26T10:11:52.148Z,16.41
2022-10-26T10:12:52.360Z,16.50
2022-10-26T10:13:52.117Z,16.60
2022-10-26T10:14:52.130Z,16.40
2022-10-26T10:15:52.091Z,16.11
2022-10-26T10:16:52.162Z,15.99
2022-10-26T10:17:53.153Z,15.99
2022-10-26T10:18:52.059Z,16.04
2022-10-26T10:19:52.053Z,16.16
2022-10-26T10:20:52.083Z,16.04
2022-10-26T10:21:52.012Z,16.30
2022-10-26T10:22:52.005Z,16.45
2022-10-26T10:23:52.021Z,16.67
2022-10-26T10:24:52.032Z,16.83
2022-10-26T10:25:51.965Z,16.86
2022-10-26T10:26:51.999Z,16.89
2022-10-26T10:27:52.014Z,16.81
2022-10-26T10:28:51.932Z,16.88
2022-10-26T10:29:51.961Z,16.90
2022-10-26T10:30:51.895Z,16.98
2022-10-26T10:31:51.880Z,17.14
2022-10-26T10:32:52.159Z,17.29
2022-10-26T10:33:51.905Z,17.23
2022-10-26T10:34:51.926Z,17.25
2022-10-26T10:35:51.831Z,17.20
2022-10-26T10:36:51.835Z,17.11
2022-10-26T10:37:51.874Z,17.13
2022-10-26T10:38:51.795Z,16.98
2022-10-26T10:39:51.789Z,16.90
2022-10-26T10:40:51.781Z,17.07
2022-10-26T10:41:51.765Z,17.06
2022-10-26T10:42:52.152Z,17.11
2022-10-26T10:43:51.726Z,17.17
2022-10-26T10:44:51.737Z,17.22
2022-10-26T10:45:53.684Z,17.33
2022-10-26T10:46:51.717Z,17.55
2022-10-26T10:47:51.680Z,17.67
2022-10-26T10:48:51.690Z,17.70
2022-10-26T10:49:51.705Z,17.82
2022-10-26T10:50:51.667Z,17.92
2022-10-26T10:51:51.645Z,18.02
2022-10-26T10:52:51.946Z,18.06
2022-10-26T10:53:51.653Z,17.85
2022-10-26T10:54:51.595Z,17.84
2022-10-26T10:55:51.580Z,17.95
2022-10-26T10:56:51.571Z,18.06
2022-10-26T10:57:51.817Z,18.00
2022-10-26T10:58:51.527Z,17.89
2022-10-26T10:59:51.532Z,17.85
2022-10-26T11:00:51.498Z,17.76
2022-10-26T11:01:51.549Z,17.87
2022-10-26T11:02:51.467Z,17.97
2022-10-26T11:03:51.460Z,18.15
2022-10-26T11:04:51.454Z,18.12
2022-10-26T11:05:51.460Z,18.27
2022-10-26T11:06:51.446Z,18.29
2022-10-26T11:07:51.650Z,18.19
2022-10-26T11:08:51.425Z,18.22
2022-10-26T11:09:51.437Z,18.29
2022-10-26T11:10:51.365Z,18.43
2022-10-26T11:11:51.362Z,18.61
2022-10-26T11:12:51.345Z,18.59
2022-10-26T11:13:51.319Z,18.70
2022-10-26T11:14:51.328Z,18.68
2022-10-26T11:15:51.302Z,18.77
2022-10-26T11:16:51.282Z,18.86
2022-10-26T11:17:51.533Z,18.82
2022-10-26T11:18:51.267Z,18.77
2022-10-26T11:19:51.238Z,18.47
2022-10-26T11:20:51.273Z,18.42
2022-10-26T11:21:51.214Z,18.33
2022-10-26T11:22:51.541Z,18.36
2022-10-26T11:23:51.192Z,18.70
2022-10-26T11:24:51.182Z,18.86
2022-10-26T11:25:51.177Z,18.87
2022-10-26T11:26:51.157Z,19.02
2022-10-26T11:27:51.393Z,19.18
2022-10-26T11:28:51.122Z,19.31
2022-10-26T11:29:51.115Z,19.32
2022-10-26T11:30:51.117Z,19.21
2022-10-26T11:31:51.082Z,18.97
2022-10-26T11:32:51.393Z,18.98
2022-10-26T11:33:51.114Z,18.94
2022-10-26T11:34:51.076Z,18.77
2022-10-26T11:35:51.039Z,18.52
2022-10-26T11:36:51.015Z,18.39
2022-10-26T11:37:51.020Z,18.28
2022-10-26T11:38:57.275Z,18.42
2022-10-26T11:39:51.975Z,18.47
2022-10-26T11:40:51.018Z,18.49
2022-10-26T11:41:50.953Z,18.74
2022-10-26T11:42:51.248Z,18.70
2022-10-26T11:43:50.925Z,18.80
2022-10-26T11:44:53.022Z,18.83
2022-10-26T11:45:50.961Z,18.87
2022-10-26T11:46:50.887Z,18.84
2022-10-26T11:47:51.210Z,18.98
2022-10-26T11:48:50.863Z,19.20
2022-10-26T11:49:50.937Z,19.32
2022-10-26T11:50:50.838Z,19.35
2022-10-26T11:51:50.910Z,19.46
2022-10-26T11:52:51.127Z,19.43
2022-10-26T11:53:50.796Z,19.42
2022-10-26T11:54:50.775Z,19.61
2022-10-26T11:55:50.776Z,19.83
2022-10-26T11:56:50.874Z,19.84
2022-10-26T11:57:50.865Z,19.78
2022-10-26T11:58:50.811Z,19.86
2022-10-26T11:59:50.775Z,19.76
2022-10-26T12:00:50.736Z,19.65
2022-10-26T12:01:50.706Z,19.76
2022-10-26T12:02:50.681Z,19.84
2022-10-26T12:03:50.663Z,19.91
2022-10-26T12:04:50.753Z,20.28
2022-10-26T12:05:50.646Z,20.30
2022-10-26T12:06:50.627Z,20.30
2022-10-26T12:07:50.838Z,20.34
2022-10-26T12:08:50.608Z,20.21
2022-10-26T12:09:50.633Z,20.38
2022-10-26T12:10:50.592Z,20.56
2022-10-26T12:11:51.247Z,20.38
2022-10-26T12:12:50.652Z,20.43
2022-10-26T12:13:50.647Z,20.18
2022-10-26T12:14:50.518Z,20.13
2022-10-26T12:16:05.935Z,20.25
2022-10-26T12:16:51.504Z,20.28
2022-10-26T12:17:50.803Z,20.27
2022-10-26T12:18:55.479Z,20.33
2022-10-26T12:19:51.471Z,20.69
2022-10-26T12:20:50.454Z,20.89
2022-10-26T12:21:50.429Z,21.05
2022-10-26T12:22:50.669Z,21.13
2022-10-26T12:23:51.748Z,21.36
2022-10-26T12:24:50.389Z,21.42
2022-10-26T12:25:50.439Z,21.44
2022-10-26T12:26:50.359Z,21.66
2022-10-26T12:27:50.373Z,21.64
2022-10-26T12:28:53.807Z,21.56
2022-10-26T12:29:50.320Z,21.30
2022-10-26T12:30:50.331Z,21.04
2022-10-26T12:31:50.305Z,21.06
2022-10-26T12:32:50.544Z,21.35
2022-10-26T12:33:50.274Z,21.36
2022-10-26T12:34:50.270Z,21.63
2022-10-26T12:35:50.302Z,21.81
2022-10-26T12:36:50.233Z,22.01
2022-10-26T12:37:50.497Z,21.94
2022-10-26T12:38:50.204Z,21.94
2022-10-26T12:39:50.207Z,21.99
2022-10-26T12:40:50.191Z,21.99
2022-10-26T12:41:50.161Z,22.06
2022-10-26T12:42:50.169Z,21.90
2022-10-26T12:43:50.142Z,21.78
2022-10-26T12:44:50.126Z,21.92
2022-10-26T12:45:50.123Z,21.76
2022-10-26T12:46:50.109Z,21.78
2022-10-26T12:47:50.481Z,21.56
2022-10-26T12:48:50.084Z,21.60
2022-10-26T12:49:50.058Z,21.61
2022-10-26T12:50:50.071Z,21.67
2022-10-26T12:51:50.058Z,21.94
2022-10-26T12:52:50.420Z,22.06
2022-10-26T12:53:50.009Z,22.19
2022-10-26T12:54:50.006Z,22.37
2022-10-26T12:55:49.985Z,22.60
2022-10-26T12:56:49.966Z,22.71
2022-10-26T12:57:49.957Z,22.27
2022-10-26T12:58:49.952Z,22.06
2022-10-26T12:59:49.939Z,21.71
2022-10-26T13:00:49.936Z,21.79
2022-10-26T13:02:50.038Z,21.92
2022-10-26T13:03:49.890Z,21.83
2022-10-26T13:04:49.881Z,22.01